createdAt,value
2023-04-26T00:00:56.945Z,149432.41
2023-04-26T00:03:25.752Z,149415.72
2023-04-26T00:05:54.878Z,149441.44
2023-04-26T00:08:23.032Z,149465.88
2023-04-26T00:10:51.143Z,149512.19
2023-04-26T00:13:19.022Z,149559.75
2023-04-26T00:15:50.413Z,149584.22
2023-04-26T00:18:18.498Z,149585.53
2023-04-26T00:20:46.444Z,149609.94
2023-04-26T00:23:14.672Z,149654.97
2023-04-26T00:25:43.039Z,149657.53
2023-04-26T00:28:10.938Z,149629.25
2023-04-26T00:30:42.302Z,149555.91
2023-04-26T00:33:11.533Z,149577.78
2023-04-26T00:35:39.480Z,149539.22
2023-04-26T00:38:07.760Z,149521.19
2023-04-26T00:40:36.297Z,149494.16
2023-04-26T00:43:10.102Z,149494.16
2023-04-26T00:45:38.988Z,149474.88
2023-04-26T00:48:07.310Z,149400.28
2023-04-26T00:50:36.989Z,149393.84
2023-04-26T00:53:06.359Z,149384.84
2023-04-26T00:55:35.372Z,149346.28
2023-04-26T00:58:03.852Z,149402.88
2023-04-26T01:00:31.927Z,149336.00
2023-04-26T01:03:00.086Z,149302.59
2023-04-26T01:05:28.054Z,149329.56
2023-04-26T01:07:57.791Z,149325.72
2023-04-26T01:10:26.444Z,149230.63
2023-04-26T01:12:57.925Z,149229.34
2023-04-26T01:15:28.053Z,149217.75
2023-04-26T01:17:56.624Z,149228.03
2023-04-26T01:20:26.121Z,149280.72
2023-04-26T01:22:55.979Z,149229.34
2023-04-26T01:25:26.470Z,149215.19
2023-04-26T01:27:54.354Z,149237.06
2023-04-26T01:30:22.469Z,149253.78
2023-04-26T01:32:50.605Z,149284.59
2023-04-26T01:35:18.931Z,149233.19
2023-04-26T01:37:46.842Z,149269.16
2023-04-26T01:40:16.590Z,149265.34
2023-04-26T01:42:44.664Z,149266.59
2023-04-26T01:45:12.982Z,149302.59
2023-04-26T01:47:42.917Z,149320.63
2023-04-26T01:50:11.774Z,149288.44
2023-04-26T01:52:41.161Z,149301.31
2023-04-26T01:55:10.077Z,149325.72
2023-04-26T01:57:39.745Z,149382.28
2023-04-26T02:00:09.431Z,149384.84
2023-04-26T02:02:40.927Z,149415.72
2023-04-26T02:05:12.474Z,149442.72
2023-04-26T02:07:40.457Z,149455.59
2023-04-26T02:10:10.026Z,149420.88
2023-04-26T02:12:39.594Z,149411.88
2023-04-26T02:15:09.691Z,149436.28
2023-04-26T02:17:37.834Z,149409.28
2023-04-26T02:20:08.314Z,149417.03
2023-04-26T02:22:38.568Z,149396.44
2023-04-26T02:25:09.668Z,149372.03
2023-04-26T02:27:40.104Z,149380.97
2023-04-26T02:30:10.730Z,149369.47
2023-04-26T02:32:40.015Z,149429.91
2023-04-26T02:35:09.539Z,149355.31
2023-04-26T02:37:38.426Z,149364.31
2023-04-26T02:40:10.508Z,149477.47
2023-04-26T02:42:39.855Z,149424.75
2023-04-26T02:45:09.056Z,149437.56
2023-04-26T02:47:39.872Z,149428.59
2023-04-26T02:50:10.480Z,149431.13
2023-04-26T02:52:39.661Z,149418.31
2023-04-26T02:55:09.539Z,149395.13
2023-04-26T02:57:39.806Z,149391.28
2023-04-26T03:00:09.164Z,149373.31
2023-04-26T03:02:38.683Z,149378.41
2023-04-26T03:05:07.020Z,149420.88
2023-04-26T03:07:34.888Z,149451.72
2023-04-26T03:10:05.340Z,149446.56
2023-04-26T03:12:33.642Z,149460.72
2023-04-26T03:15:04.128Z,149446.56
2023-04-26T03:17:32.425Z,149424.75
2023-04-26T03:20:01.939Z,149364.31
2023-04-26T03:22:30.743Z,149357.88
2023-04-26T03:24:58.592Z,149292.31
2023-04-26T03:27:26.541Z,149260.19
2023-04-26T03:29:54.607Z,149238.34
2023-04-26T03:32:24.053Z,149213.91
2023-04-26T03:34:52.303Z,149274.31
2023-04-26T03:37:20.126Z,149315.47
2023-04-26T03:39:48.078Z,149297.44
2023-04-26T03:42:16.173Z,149360.44
2023-04-26T03:44:44.080Z,149422.16
2023-04-26T03:47:15.784Z,149453.00
2023-04-26T03:49:48.016Z,149485.19
2023-04-26T03:52:33.264Z,149518.59
2023-04-26T03:55:01.439Z,149554.59
2023-04-26T03:57:56.298Z,149582.94
2023-04-26T04:00:24.600Z,149595.78
2023-04-26T04:02:57.874Z,149640.84
2023-04-26T04:05:34.643Z,149609.94
2023-04-26T04:08:03.106Z,149626.69
2023-04-26T04:10:35.121Z,149615.09
2023-04-26T04:13:11.499Z,149585.53
2023-04-26T04:15:41.143Z,149566.19
2023-04-26T04:18:09.232Z,149540.50
2023-04-26T04:20:42.178Z,149532.78
2023-04-26T04:23:10.873Z,149487.72
2023-04-26T04:25:42.065Z,149504.44
2023-04-26T04:28:11.253Z,149472.31
2023-04-26T04:30:39.266Z,149494.16
2023-04-26T04:33:10.433Z,149451.72
2023-04-26T04:35:42.007Z,149428.59
2023-04-26T04:38:09.975Z,149451.72
2023-04-26T04:40:39.845Z,149441.44
2023-04-26T04:43:09.100Z,149444.00
2023-04-26T04:45:37.322Z,149408.00
2023-04-26T04:48:09.272Z,149438.84
2023-04-26T04:50:38.688Z,149410.59
2023-04-26T04:53:09.063Z,149408.00
2023-04-26T04:55:39.636Z,149411.88
2023-04-26T04:58:07.806Z,149471.03
2023-04-26T05:00:38.088Z,149518.59
2023-04-26T05:03:08.612Z,149535.34
2023-04-26T05:05:37.372Z,149564.91
2023-04-26T05:08:07.874Z,149597.06
2023-04-26T05:10:36.324Z,149586.81
2023-04-26T05:13:06.650Z,149546.88
2023-04-26T05:15:34.561Z,149561.06
2023-04-26T05:18:02.477Z,149541.72
2023-04-26T05:20:31.262Z,149495.44
2023-04-26T05:22:59.168Z,149528.91
2023-04-26T05:25:28.510Z,149528.91
2023-04-26T05:27:56.835Z,149508.31
2023-04-26T05:30:25.349Z,149541.72
2023-04-26T05:32:53.588Z,149541.72
2023-04-26T05:35:21.904Z,149591.94
2023-04-26T05:37:49.871Z,149629.25
2023-04-26T05:40:17.879Z,149712.88
2023-04-26T05:42:47.184Z,149709.03
2023-04-26T05:45:15.562Z,149691.03
2023-04-26T05:47:43.716Z,149709.03
2023-04-26T05:50:12.197Z,149751.53
2023-04-26T05:52:40.136Z,149842.94
2023-04-26T05:55:09.267Z,149992.34
2023-04-26T05:57:37.430Z,150211.44
2023-04-26T06:00:09.687Z,150345.59
2023-04-26T06:02:38.031Z,150375.25
2023-04-26T06:05:07.607Z,150442.34
2023-04-26T06:07:36.186Z,150384.28
2023-04-26T06:10:04.494Z,150446.22
2023-04-26T06:12:33.037Z,150354.66
2023-04-26T06:15:01.486Z,150318.50
2023-04-26T06:17:31.113Z,150286.28
2023-04-26T06:19:59.165Z,150306.94
2023-04-26T06:22:29.227Z,150315.91
2023-04-26T06:24:57.267Z,150334.00
2023-04-26T06:27:25.239Z,150324.94
2023-04-26T06:29:53.582Z,150341.72
2023-04-26T06:32:21.802Z,150349.47
2023-04-26T06:34:51.573Z,150332.69
2023-04-26T06:37:19.483Z,150380.41
2023-04-26T06:39:47.426Z,150434.59
2023-04-26T06:42:15.475Z,150416.56
2023-04-26T06:44:43.464Z,150425.56
2023-04-26T06:47:11.369Z,150552.13
2023-04-26T06:49:39.720Z,150607.63
2023-04-26T06:52:11.978Z,150619.25
2023-04-26T06:54:42.892Z,150625.72
2023-04-26T06:57:18.934Z,150035.19
2023-04-26T06:59:47.297Z,147181.53
2023-04-26T07:02:15.955Z,143686.53
2023-04-26T07:04:44.579Z,138639.44
2023-04-26T07:07:17.149Z,133490.38
2023-04-26T07:09:45.319Z,127463.06
2023-04-26T07:12:13.579Z,123476.84
2023-04-26T07:14:43.333Z,119597.44
2023-04-26T07:17:11.716Z,113625.38
2023-04-26T07:19:39.780Z,106966.16
2023-04-26T07:22:10.005Z,102725.59
2023-04-26T07:24:39.661Z,97288.88
2023-04-26T07:27:10.681Z,93637.34
2023-04-26T07:29:43.874Z,91772.75
2023-04-26T07:32:11.987Z,89400.81
2023-04-26T07:34:39.977Z,88786.84
2023-04-26T07:37:08.216Z,24823.72
2023-04-26T07:39:50.740Z,22361.47
2023-04-26T07:42:18.792Z,1223.75
2023-04-26T07:44:49.168Z,-5680.81
2023-04-26T07:47:39.205Z,-13865.59
2023-04-26T07:50:08.647Z,-17820.22
2023-04-26T07:52:41.138Z,-18785.56
2023-04-26T07:55:11.316Z,-18765.34
2023-04-26T07:57:41.829Z,-18106.53
2023-04-26T08:00:13.690Z,-19416.56
2023-04-26T08:02:44.633Z,-20070.53
2023-04-26T08:05:14.525Z,-20079.78
2023-04-26T08:07:42.984Z,-20068.84
2023-04-26T08:10:16.343Z,-20075.59
2023-04-26T08:12:49.581Z,-20070.13
2023-04-26T08:15:26.795Z,-20092.97
2023-04-26T08:17:55.140Z,-20130.38
2023-04-26T08:20:27.089Z,-20123.94
2023-04-26T08:27:23.243Z,-20114.97
2023-04-26T08:29:51.205Z,-20102.00
2023-04-26T08:32:21.489Z,-17801.50
2023-04-26T08:34:49.892Z,-13861.13
2023-04-26T08:37:21.550Z,-6987.38
2023-04-26T08:39:50.644Z,-5023.28
2023-04-26T08:42:25.653Z,-1080.72
2023-04-26T08:44:54.901Z,-2066.09
2023-04-26T08:47:28.684Z,-1078.19
2023-04-26T08:49:59.832Z,4859.44
2023-04-26T08:52:30.063Z,17395.69
2023-04-26T08:54:59.143Z,20367.66
2023-04-26T08:57:28.843Z,35356.97
2023-04-26T09:00:02.281Z,37763.44
2023-04-26T09:02:31.500Z,50755.28
2023-04-26T09:05:00.029Z,65831.66
2023-04-26T09:07:32.835Z,56559.72
2023-04-26T09:10:01.763Z,72255.97
2023-04-26T09:12:46.378Z,73216.53
2023-04-26T09:15:17.023Z,62352.91
2023-04-26T09:17:46.063Z,45252.41
2023-04-26T09:20:22.664Z,44517.31
2023-04-26T09:22:54.051Z,44178.78
2023-04-26T09:25:30.115Z,38817.44
2023-04-26T09:28:03.784Z,94462.72
2023-04-26T09:30:39.490Z,73635.19
2023-04-26T09:33:09.737Z,25551.81
2023-04-26T09:35:42.186Z,2516.72
2023-04-26T09:38:15.783Z,-4359.03
2023-04-26T09:40:46.298Z,-7957.75
2023-04-26T09:43:17.653Z,-15144.66
2023-04-26T09:45:49.124Z,-17760.38
2023-04-26T09:48:20.724Z,-19396.88
2023-04-26T09:50:49.956Z,-19728.44
2023-04-26T09:53:29.206Z,-20059.31
2023-04-26T09:55:58.171Z,-20061.41
2023-04-26T09:58:27.895Z,-20064.09
2023-04-26T10:00:57.044Z,-20074.47
2023-04-26T10:03:27.273Z,-20071.25
2023-04-26T10:05:55.944Z,-20075.06
2023-04-26T10:08:24.348Z,-18762.50
2023-04-26T10:10:52.683Z,-6988.22
2023-04-26T10:13:20.890Z,-10261.69
2023-04-26T10:15:51.006Z,-20064.13
2023-04-26T10:18:18.969Z,-18774.16
2023-04-26T10:20:53.070Z,-12889.44
2023-04-26T10:23:30.339Z,-10257.91
2023-04-26T10:25:58.622Z,-11579.63
2023-04-26T10:29:02.215Z,566.16
2023-04-26T10:32:07.428Z,5493.91
2023-04-26T10:34:39.319Z,3190.00
2023-04-26T10:37:12.334Z,7140.22
2023-04-26T10:39:43.923Z,8454.97
2023-04-26T10:42:26.898Z,29309.28
2023-04-26T10:44:55.767Z,23317.91
2023-04-26T10:47:26.939Z,20017.94
2023-04-26T10:50:05.723Z,15392.78
2023-04-26T10:52:34.895Z,18355.66
2023-04-26T10:55:03.548Z,21017.34
2023-04-26T10:57:51.593Z,29955.38
2023-04-26T11:00:32.714Z,37291.66
2023-04-26T11:03:06.842Z,45924.22
2023-04-26T11:05:54.212Z,35976.88
2023-04-26T11:08:26.356Z,40969.63
2023-04-26T11:11:00.570Z,37008.38
2023-04-26T11:13:28.686Z,45060.84
2023-04-26T11:16:03.338Z,44659.81
2023-04-26T11:18:32.142Z,42649.13
2023-04-26T11:21:01.790Z,74004.94
2023-04-26T11:23:33.754Z,83340.97
2023-04-26T11:26:03.858Z,68537.13
2023-04-26T11:28:34.296Z,92725.72
2023-04-26T11:31:04.318Z,79376.44
2023-04-26T11:33:34.121Z,92559.94
2023-04-26T11:36:03.950Z,92286.50
2023-04-26T11:38:32.115Z,84620.00
2023-04-26T11:41:01.586Z,50263.75
2023-04-26T11:43:37.016Z,13069.75
2023-04-26T11:46:10.132Z,6144.94
2023-04-26T11:48:39.914Z,32187.72
2023-04-26T11:51:11.926Z,18641.66
2023-04-26T11:53:41.102Z,14671.25
2023-04-26T11:56:18.725Z,2517.13
2023-04-26T11:58:48.112Z,-8284.31
2023-04-26T12:01:23.282Z,-5669.56
2023-04-26T12:03:53.111Z,-9267.09
2023-04-26T12:06:30.196Z,-9923.53
2023-04-26T12:08:58.470Z,-12866.59
2023-04-26T12:11:27.455Z,-10907.78
2023-04-26T12:13:55.406Z,-3051.31
2023-04-26T12:16:26.891Z,-2723.31
2023-04-26T12:18:56.948Z,1217.38
2023-04-26T12:21:30.434Z,-1082.63
2023-04-26T12:24:03.966Z,-751.88
2023-04-26T12:26:48.890Z,7484.25
2023-04-26T12:29:26.056Z,4846.59
2023-04-26T12:32:04.115Z,16067.66
2023-04-26T12:34:33.366Z,11753.66
2023-04-26T12:37:05.378Z,-8623.59
2023-04-26T12:39:41.154Z,-10911.53
2023-04-26T12:42:41.247Z,8108.88
2023-04-26T12:45:16.721Z,16337.44
2023-04-26T12:47:44.870Z,4818.81
2023-04-26T12:50:18.569Z,-428.50
2023-04-26T12:52:51.570Z,-8290.69
2023-04-26T12:55:20.814Z,-11888.53
2023-04-26T12:57:48.994Z,-12873.22
2023-04-26T13:00:21.845Z,-15817.38
2023-04-26T13:02:50.197Z,-8617.84
2023-04-26T13:05:18.160Z,-16145.13
2023-04-26T13:07:46.064Z,-17126.56
2023-04-26T13:10:15.321Z,-17459.13
2023-04-26T13:12:43.447Z,-17789.34
2023-04-26T13:15:12.381Z,-18451.44
2023-04-26T13:17:43.028Z,-17147.59
2023-04-26T13:20:11.662Z,-13879.91
2023-04-26T13:22:42.378Z,-5022.50
2023-04-26T13:25:11.058Z,-4691.63
2023-04-26T13:27:42.820Z,-2065.78
2023-04-26T13:30:12.126Z,5837.38
2023-04-26T13:32:40.989Z,31636.59
2023-04-26T13:35:10.293Z,22022.34
2023-04-26T13:37:39.213Z,21031.75
2023-04-26T13:40:08.800Z,36320.91
2023-04-26T13:42:36.770Z,22362.50
2023-04-26T13:45:09.460Z,21011.03
2023-04-26T13:47:37.977Z,19368.50
2023-04-26T13:50:06.532Z,45633.00
2023-04-26T13:52:34.464Z,52670.56
2023-04-26T13:55:03.082Z,42951.13
2023-04-26T13:57:31.470Z,63009.28
2023-04-26T14:00:00.768Z,57367.16
2023-04-26T14:02:30.298Z,60696.00
2023-04-26T14:04:58.462Z,73190.06
2023-04-26T14:07:27.630Z,90033.63
2023-04-26T14:09:57.560Z,59419.94
2023-04-26T14:12:29.061Z,63069.91
2023-04-26T14:14:56.942Z,66078.13
2023-04-26T14:17:32.448Z,57992.84
2023-04-26T14:20:01.839Z,61646.63
2023-04-26T14:22:29.764Z,67310.31
2023-04-26T14:24:57.886Z,69321.44
2023-04-26T14:27:30.619Z,24626.47
2023-04-26T14:29:58.480Z,6145.41
2023-04-26T14:32:27.120Z,-427.09
2023-04-26T14:34:56.584Z,-3051.34
2023-04-26T14:37:24.479Z,-99.28
2023-04-26T14:39:52.380Z,3182.50
2023-04-26T14:42:20.433Z,2526.00
2023-04-26T14:44:48.592Z,3512.31
2023-04-26T14:47:16.519Z,4170.28
2023-04-26T14:49:44.701Z,23630.25
2023-04-26T14:52:14.402Z,22664.75
2023-04-26T14:54:42.933Z,25326.69
2023-04-26T14:57:10.945Z,39923.84
2023-04-26T14:59:39.737Z,35262.97
2023-04-26T15:02:08.092Z,50257.16
2023-04-26T15:04:38.385Z,44629.97
2023-04-26T15:07:06.791Z,45959.38
2023-04-26T15:09:37.208Z,23333.91
2023-04-26T15:12:06.106Z,50632.97
2023-04-26T15:14:34.184Z,56981.13
2023-04-26T15:17:02.403Z,74792.22
2023-04-26T15:19:30.349Z,106392.09
2023-04-26T15:22:01.047Z,80586.56
2023-04-26T15:24:30.346Z,135213.22
2023-04-26T15:27:01.653Z,149965.03
2023-04-26T15:29:32.120Z,152196.13
2023-04-26T15:32:00.210Z,152345.44
2023-04-26T15:34:30.223Z,152396.13
2023-04-26T15:37:00.665Z,152602.69
2023-04-26T15:39:30.279Z,152526.00
2023-04-26T15:41:59.933Z,152603.97
2023-04-26T15:44:29.472Z,152806.78
2023-04-26T15:46:57.308Z,152414.28
2023-04-26T15:49:25.355Z,152440.28
2023-04-26T15:51:55.315Z,152244.16
2023-04-26T15:54:23.270Z,151900.34
2023-04-26T15:56:51.830Z,151747.34
2023-04-26T15:59:20.273Z,151619.06
2023-04-26T16:01:49.767Z,151625.53
2023-04-26T16:04:17.874Z,151625.53
2023-04-26T16:06:46.079Z,151327.72
2023-04-26T16:09:24.809Z,151370.41
2023-04-26T16:11:53.662Z,151235.84
2023-04-26T16:14:24.796Z,151268.19
2023-04-26T16:16:54.397Z,151175.03
2023-04-26T16:19:24.572Z,151295.38
2023-04-26T16:21:52.533Z,151673.53
2023-04-26T16:24:21.217Z,151830.31
2023-04-26T16:26:52.612Z,151724.06
2023-04-26T16:29:26.863Z,151735.72
2023-04-26T16:31:56.212Z,151708.50
2023-04-26T16:34:27.765Z,151804.38
2023-04-26T16:36:55.869Z,151804.38
2023-04-26T16:39:24.492Z,151760.31
2023-04-26T16:41:57.509Z,151708.50
2023-04-26T16:44:26.659Z,151796.66
2023-04-26T16:46:56.077Z,151740.91
2023-04-26T16:49:24.542Z,151422.19
2023-04-26T16:52:26.517Z,151621.66
2023-04-26T16:54:55.653Z,151468.78
2023-04-26T16:57:45.103Z,151441.63
2023-04-26T17:00:16.772Z,151654.06
2023-04-26T17:02:48.278Z,151803.09
2023-04-26T17:05:18.646Z,151659.25
2023-04-26T17:07:50.763Z,151529.66
2023-04-26T17:10:19.133Z,151536.13
2023-04-26T17:12:47.518Z,151398.91
2023-04-26T17:15:25.651Z,151546.50
2023-04-26T17:17:55.311Z,151507.66
2023-04-26T17:20:25.690Z,151685.19
2023-04-26T17:22:53.849Z,151742.22
2023-04-26T17:25:23.020Z,151414.41
2023-04-26T17:27:51.528Z,151250.03
2023-04-26T17:30:20.043Z,151222.91
2023-04-26T17:32:50.533Z,151145.22
2023-04-26T17:35:20.073Z,151026.28
2023-04-26T17:37:50.243Z,151066.34
2023-04-26T17:40:22.777Z,151027.53
2023-04-26T17:42:50.739Z,150990.03
2023-04-26T17:45:18.781Z,150984.88
2023-04-26T17:47:46.892Z,150973.22
2023-04-26T17:50:15.438Z,150944.81
2023-04-26T17:52:45.254Z,150925.41
2023-04-26T17:55:13.339Z,150895.69
2023-04-26T17:57:42.377Z,150867.25
2023-04-26T18:00:13.949Z,150834.97
2023-04-26T18:02:43.418Z,150772.94
2023-04-26T18:05:18.274Z,150739.38
2023-04-26T18:07:50.681Z,150754.84
2023-04-26T18:10:19.129Z,150753.53
2023-04-26T18:12:55.957Z,150723.84
2023-04-26T18:15:28.042Z,150694.19
2023-04-26T18:17:56.162Z,150676.06
2023-04-26T18:20:24.221Z,150660.56
2023-04-26T18:22:58.161Z,150632.19
2023-04-26T18:25:27.387Z,150611.50
2023-04-26T18:27:57.910Z,150568.91
2023-04-26T18:30:26.268Z,150568.91
2023-04-26T18:32:55.584Z,150548.25
2023-04-26T18:35:23.777Z,150522.41
2023-04-26T18:37:53.252Z,150514.66
2023-04-26T18:40:21.221Z,150415.28
2023-04-26T18:42:49.380Z,150453.97
2023-04-26T18:45:17.758Z,150397.19
2023-04-26T18:47:45.895Z,150312.03
2023-04-26T18:50:13.873Z,149564.22
2023-04-26T18:52:50.240Z,145685.06
2023-04-26T18:55:21.593Z,139111.13
2023-04-26T18:57:50.200Z,124452.53
2023-04-26T19:00:22.901Z,103692.25
2023-04-26T19:02:51.218Z,78454.81
2023-04-26T19:05:19.736Z,48106.59
2023-04-26T19:07:47.828Z,25058.31
2023-04-26T19:10:23.141Z,10972.12
2023-04-26T19:12:52.084Z,6076.16
2023-04-26T19:15:20.933Z,856.75
2023-04-26T19:17:50.619Z,-772.97
2023-04-26T19:20:26.863Z,-2724.50
2023-04-26T19:22:55.058Z,-7270.16
2023-04-26T19:25:29.522Z,-12134.16
2023-04-26T19:27:59.685Z,-17309.50
2023-04-26T19:30:27.869Z,-18599.16
2023-04-26T19:33:00.020Z,-19566.06
2023-04-26T19:35:28.251Z,-19886.25
2023-04-26T19:37:57.234Z,-19239.75
2023-04-26T19:40:26.804Z,-19234.72
2023-04-26T19:42:54.746Z,-14719.56
2023-04-26T19:45:22.877Z,-2640.91
2023-04-26T19:47:53.726Z,-194.47
2023-04-26T19:50:22.769Z,3624.22
2023-04-26T19:52:50.797Z,15765.06
2023-04-26T19:55:29.756Z,28973.69
2023-04-26T19:57:59.386Z,44759.06
2023-04-26T20:00:30.217Z,58758.91
2023-04-26T20:02:59.136Z,73789.50
2023-04-26T20:05:27.483Z,90048.44
2023-04-26T20:08:00.460Z,105815.41
2023-04-26T20:10:31.622Z,116771.41
2023-04-26T20:13:01.498Z,130082.28
2023-04-26T20:15:32.273Z,138947.47
2023-04-26T20:18:06.987Z,142973.72
2023-04-26T20:20:37.146Z,146728.69
2023-04-26T20:23:05.092Z,148764.91
2023-04-26T20:25:36.028Z,149366.88
2023-04-26T20:28:13.033Z,149503.16
2023-04-26T20:30:41.017Z,149432.41
2023-04-26T20:33:10.101Z,149415.72
2023-04-26T20:35:38.130Z,149526.34
2023-04-26T20:40:48.783Z,149405.44
2023-04-26T20:43:18.466Z,149328.28
2023-04-26T20:45:49.441Z,149292.31
2023-04-26T20:48:17.586Z,149234.47
2023-04-26T20:50:45.726Z,149171.50
2023-04-26T20:53:13.904Z,149267.88
2023-04-26T20:55:42.300Z,149285.88
2023-04-26T20:58:10.250Z,149274.31
2023-04-26T21:00:51.495Z,149347.56
2023-04-26T21:03:33.676Z,149352.72
2023-04-26T21:06:01.812Z,149451.72
2023-04-26T21:08:29.724Z,149429.91
2023-04-26T21:10:58.811Z,149363.03
2023-04-26T21:13:27.098Z,149356.59
2023-04-26T21:15:59.696Z,149348.88
2023-04-26T21:18:37.498Z,149417.03
2023-04-26T21:21:05.676Z,149330.84
2023-04-26T21:23:47.639Z,149297.44
2023-04-26T21:26:18.414Z,149230.63
2023-04-26T21:28:49.298Z,149292.31
2023-04-26T21:31:22.206Z,149186.94
2023-04-26T21:33:50.875Z,149109.84
2023-04-26T21:36:19.074Z,149166.38
2023-04-26T21:38:48.568Z,149199.81
2023-04-26T21:41:16.534Z,149106.00
2023-04-26T21:43:45.809Z,149148.41
2023-04-26T21:46:13.890Z,149184.38
2023-04-26T21:48:45.677Z,149198.53
2023-04-26T21:51:14.851Z,149097.03
2023-04-26T21:53:42.910Z,149028.97
2023-04-26T21:56:14.660Z,149030.25
2023-04-26T21:58:43.228Z,149192.09
2023-04-26T22:01:13.037Z,149323.13
2023-04-26T22:03:41.472Z,149348.88
2023-04-26T22:06:11.547Z,149292.31
2023-04-26T22:08:39.692Z,149194.66
2023-04-26T22:11:07.863Z,149221.63
2023-04-26T22:13:35.916Z,149248.63
2023-04-26T22:16:04.383Z,149235.75
2023-04-26T22:18:32.666Z,149224.19
2023-04-26T22:21:01.651Z,149233.19
2023-04-26T22:23:31.712Z,149243.47
2023-04-26T22:26:00.742Z,149183.09
2023-04-26T22:28:28.713Z,149174.09
2023-04-26T22:30:56.796Z,149086.75
2023-04-26T22:33:24.766Z,149040.53
2023-04-26T22:35:57.504Z,149142.00
2023-04-26T22:38:25.547Z,149109.84
2023-04-26T22:40:55.341Z,149179.22
2023-04-26T22:43:23.700Z,149143.28
2023-04-26T22:45:51.780Z,149184.38
2023-04-26T22:48:19.746Z,149156.13
2023-04-26T22:50:49.619Z,149090.63
2023-04-26T22:53:17.792Z,149075.19
2023-04-26T22:55:45.943Z,149147.13
2023-04-26T22:58:17.267Z,149143.28
2023-04-26T23:00:45.273Z,149086.75
2023-04-26T23:03:13.557Z,149093.19
2023-04-26T23:05:41.614Z,149040.53
2023-04-26T23:08:10.994Z,149019.97
2023-04-26T23:10:40.064Z,149017.41
2023-04-26T23:13:10.408Z,148984.03
2023-04-26T23:15:39.774Z,149034.13
2023-04-26T23:18:07.819Z,149025.13
2023-04-26T23:20:36.933Z,149081.63
2023-04-26T23:23:04.991Z,149104.72
2023-04-26T23:25:32.938Z,149082.91
2023-04-26T23:28:01.092Z,149076.47
2023-04-26T23:30:29.017Z,149032.81
2023-04-26T23:32:58.248Z,148978.91
2023-04-26T23:35:26.189Z,149008.41
2023-04-26T23:37:55.216Z,148994.28
2023-04-26T23:40:23.321Z,148981.47
2023-04-26T23:42:51.266Z,148996.84
2023-04-26T23:45:19.493Z,149037.97
2023-04-26T23:47:47.429Z,149058.47
2023-04-26T23:50:16.860Z,148986.59
2023-04-26T23:52:45.006Z,148958.34
2023-04-26T23:55:13.259Z,148955.78
2023-04-26T23:57:41.344Z,148927.56
